createdAt,value
2019-02-02T00:02:43.418Z,1.40
2019-02-02T00:05:31.438Z,1.60
2019-02-02T00:08:18.841Z,1.67
2019-02-02T00:11:06.123Z,2.20
2019-02-02T00:13:53.725Z,2.20
2019-02-02T00:16:43.265Z,1.93
2019-02-02T00:19:30.585Z,1.30
2019-02-02T00:22:20.100Z,1.50
2019-02-02T00:25:07.818Z,1.43
2019-02-02T00:27:55.713Z,2.47
2019-02-02T00:30:43.632Z,2.00
2019-02-02T00:33:30.699Z,1.83
2019-02-02T00:36:18.014Z,2.60
2019-02-02T00:39:08.801Z,2.00
2019-02-02T00:42:05.305Z,1.80
2019-02-02T00:44:54.618Z,2.87
2019-02-02T00:47:42.257Z,2.13
2019-02-02T00:50:35.963Z,1.90
2019-02-02T00:53:23.910Z,2.63
2019-02-02T00:56:11.743Z,2.50
2019-02-02T00:59:00.066Z,2.33
2019-02-02T01:02:13.378Z,3.17
2019-02-02T01:05:08.379Z,2.23
2019-02-02T01:07:59.365Z,1.97
2019-02-02T01:10:46.929Z,2.03
2019-02-02T01:13:34.933Z,2.57
2019-02-02T01:19:20.005Z,1.80
2019-02-02T01:22:07.996Z,1.77
2019-02-02T01:24:56.404Z,1.90
2019-02-02T01:27:50.054Z,1.67
2019-02-02T01:30:37.503Z,1.67
2019-02-02T01:33:48.839Z,2.50
2019-02-02T01:36:39.869Z,1.60
2019-02-02T01:39:29.801Z,1.40
2019-02-02T01:42:17.633Z,1.87
2019-02-02T01:45:06.680Z,1.67
2019-02-02T01:47:56.148Z,2.23
2019-02-02T01:50:44.809Z,3.43
2019-02-02T01:53:33.247Z,1.30
2019-02-02T01:56:20.666Z,2.07
2019-02-02T01:59:09.209Z,1.30
2019-02-02T02:01:57.056Z,1.47
2019-02-02T02:04:45.656Z,1.17
2019-02-02T02:07:39.180Z,1.67
2019-02-02T02:10:28.034Z,1.33
2019-02-02T02:13:16.182Z,1.47
2019-02-02T02:16:05.474Z,1.83
2019-02-02T02:18:53.502Z,1.50
2019-02-02T02:21:42.775Z,1.80
2019-02-02T02:24:30.495Z,2.23
2019-02-02T02:27:18.447Z,1.97
2019-02-02T02:30:06.992Z,1.50
2019-02-02T02:32:55.305Z,1.60
2019-02-02T02:35:43.443Z,2.97
2019-02-02T02:38:33.724Z,1.50
2019-02-02T02:41:22.677Z,1.30
2019-02-02T02:44:13.023Z,1.63
2019-02-02T02:47:01.290Z,1.20
2019-02-02T02:49:49.519Z,1.60
2019-02-02T02:52:48.618Z,1.40
2019-02-02T02:58:48.323Z,1.30
2019-02-02T03:01:40.636Z,1.40
2019-02-02T03:04:30.674Z,1.47
2019-02-02T03:07:19.497Z,1.87
2019-02-02T03:10:30.528Z,2.27
2019-02-02T03:13:18.765Z,1.70
2019-02-02T03:16:07.307Z,2.00
2019-02-02T03:18:55.061Z,2.27
2019-02-02T03:21:44.192Z,1.83
2019-02-02T03:24:31.871Z,2.03
2019-02-02T03:27:39.580Z,2.17
2019-02-02T03:30:27.891Z,2.00
2019-02-02T03:33:24.054Z,2.37
2019-02-02T03:36:11.886Z,1.97
2019-02-02T03:38:59.700Z,2.20
2019-02-02T03:41:47.189Z,2.20
2019-02-02T03:44:35.289Z,2.90
2019-02-02T03:47:25.866Z,3.53
2019-02-02T03:50:14.149Z,3.40
2019-02-02T03:53:01.638Z,3.37
2019-02-02T03:56:48.435Z,3.07
2019-02-02T03:59:36.196Z,3.17
2019-02-02T04:02:23.722Z,3.83
2019-02-02T04:05:12.975Z,4.73
2019-02-02T04:08:04.398Z,3.90
2019-02-02T04:10:55.069Z,3.27
2019-02-02T04:13:42.752Z,3.40
2019-02-02T04:16:31.025Z,4.03
2019-02-02T04:19:18.651Z,4.03
2019-02-02T04:22:06.424Z,4.27
2019-02-02T04:25:02.899Z,5.87
2019-02-02T04:27:51.245Z,4.93
2019-02-02T04:30:39.591Z,4.47
2019-02-02T04:37:05.176Z,4.50
2019-02-02T04:39:55.458Z,4.17
2019-02-02T04:42:43.429Z,4.50
2019-02-02T04:45:32.754Z,3.73
2019-02-02T04:48:20.525Z,3.33
2019-02-02T04:51:11.475Z,3.13
2019-02-02T04:57:25.299Z,3.27
2019-02-02T05:00:19.676Z,3.20
2019-02-02T05:03:10.753Z,3.03
2019-02-02T05:06:00.547Z,3.10
2019-02-02T05:08:47.912Z,3.70
2019-02-02T05:11:35.585Z,4.73
2019-02-02T05:14:23.315Z,4.13
2019-02-02T05:17:12.817Z,4.83
2019-02-02T05:20:00.861Z,4.40
2019-02-02T05:22:50.569Z,3.90
2019-02-02T05:26:15.852Z,4.40
2019-02-02T05:29:03.380Z,5.13
2019-02-02T05:31:52.995Z,4.60
2019-02-02T05:37:45.962Z,4.43
2019-02-02T05:44:06.748Z,5.20
2019-02-02T05:46:57.780Z,5.07
2019-02-02T05:49:52.975Z,4.93
2019-02-02T05:52:41.001Z,5.43
2019-02-02T05:55:47.684Z,5.33
2019-02-02T05:59:05.870Z,4.63
2019-02-02T06:01:54.013Z,4.90
2019-02-02T06:04:42.043Z,5.27
2019-02-02T06:08:00.200Z,5.40
2019-02-02T06:17:43.665Z,6.03
2019-02-02T06:23:02.126Z,5.80
2019-02-02T06:29:20.831Z,5.10
2019-02-02T06:32:38.163Z,5.33
2019-02-02T06:35:35.766Z,4.80
2019-02-02T06:38:42.698Z,4.70
2019-02-02T06:41:58.335Z,4.00
2019-02-02T06:45:53.379Z,4.90
2019-02-02T06:48:32.065Z,5.00
2019-02-02T06:54:11.082Z,4.33
2019-02-02T06:56:58.874Z,5.43
2019-02-02T06:59:46.814Z,5.90
2019-02-02T07:05:53.257Z,5.40
2019-02-02T07:08:54.285Z,5.60
2019-02-02T07:12:08.435Z,5.23
2019-02-02T07:14:56.132Z,5.43
2019-02-02T07:17:44.267Z,5.37
2019-02-02T07:21:07.655Z,5.77
2019-02-02T07:27:15.327Z,5.60
2019-02-02T07:36:32.594Z,5.60
2019-02-02T07:39:44.458Z,6.10
2019-02-02T07:42:33.844Z,6.53
2019-02-02T07:46:14.973Z,6.40
2019-02-02T07:49:17.229Z,6.03
2019-02-02T07:52:15.295Z,6.03
2019-02-02T07:55:03.115Z,5.90
2019-02-02T07:58:17.862Z,6.03
2019-02-02T08:01:36.457Z,6.60
2019-02-02T08:04:42.120Z,6.37
2019-02-02T08:07:36.237Z,5.67
2019-02-02T08:10:24.123Z,6.53
2019-02-02T08:13:12.354Z,6.23
2019-02-02T08:16:11.783Z,6.83
2019-02-02T08:19:16.220Z,6.90
2019-02-02T08:22:06.262Z,7.07
2019-02-02T08:24:54.464Z,6.77
2019-02-02T08:27:42.393Z,6.40
2019-02-02T08:30:30.883Z,6.47
2019-02-02T08:33:41.683Z,6.23
2019-02-02T08:36:36.265Z,6.47
2019-02-02T08:39:53.994Z,7.03
2019-02-02T08:42:46.876Z,6.73
2019-02-02T08:45:36.690Z,7.10
2019-02-02T08:51:36.597Z,6.33
2019-02-02T08:54:30.662Z,6.67
2019-02-02T08:57:18.540Z,7.27
2019-02-02T09:00:07.562Z,6.37
2019-02-02T09:02:55.122Z,6.47
2019-02-02T09:05:46.493Z,7.23
2019-02-02T09:08:36.278Z,6.33
2019-02-02T09:11:48.852Z,7.93
2019-02-02T09:14:40.784Z,6.33
2019-02-02T09:17:41.248Z,6.23
2019-02-02T09:20:28.969Z,6.10
2019-02-02T09:23:18.045Z,6.33
2019-02-02T09:29:01.876Z,8.70
2019-02-02T09:31:49.846Z,6.47
2019-02-02T09:34:54.196Z,6.37
2019-02-02T09:37:45.840Z,7.57
2019-02-02T09:40:33.668Z,8.10
2019-02-02T09:43:21.792Z,8.03
2019-02-02T09:47:45.159Z,9.53
2019-02-02T09:49:06.128Z,9.37
2019-02-02T09:51:55.249Z,8.93
2019-02-02T09:57:36.935Z,9.57
2019-02-02T10:00:32.086Z,10.77
2019-02-02T10:03:20.303Z,10.13
2019-02-02T10:06:08.721Z,10.17
2019-02-02T10:08:58.047Z,10.20
2019-02-02T10:11:49.434Z,9.87
2019-02-02T10:14:37.100Z,10.10
2019-02-02T10:17:43.511Z,10.57
2019-02-02T10:20:30.981Z,9.80
2019-02-02T10:23:18.993Z,9.50
2019-02-02T10:26:06.978Z,10.00
2019-02-02T10:28:55.037Z,10.03
2019-02-02T10:31:42.439Z,10.17
2019-02-02T10:34:29.857Z,9.03
2019-02-02T10:40:25.961Z,11.60
2019-02-02T10:43:14.014Z,11.30
2019-02-02T10:49:07.467Z,10.03
2019-02-02T10:51:57.775Z,10.30
2019-02-02T10:54:46.937Z,9.63
2019-02-02T10:57:36.165Z,9.57
2019-02-02T11:00:25.428Z,9.97
2019-02-02T11:06:50.963Z,9.63
2019-02-02T11:09:38.718Z,10.87
2019-02-02T11:12:26.466Z,10.10
2019-02-02T11:15:21.828Z,10.00
2019-02-02T11:18:19.480Z,9.50
2019-02-02T11:21:14.621Z,9.50
2019-02-02T11:24:06.504Z,9.50
2019-02-02T11:26:53.175Z,9.87
2019-02-02T11:32:58.099Z,9.90
2019-02-02T11:35:45.370Z,9.13
2019-02-02T11:38:34.163Z,9.20
2019-02-02T11:41:22.198Z,13.37
2019-02-02T11:44:14.730Z,9.63
2019-02-02T11:47:03.018Z,9.20
2019-02-02T11:49:50.785Z,10.03
2019-02-02T11:52:39.006Z,9.13
2019-02-02T11:55:27.293Z,10.53
2019-02-02T11:58:22.243Z,9.07
2019-02-02T12:01:10.131Z,8.50
2019-02-02T12:03:58.420Z,8.67
2019-02-02T12:06:49.064Z,8.90
2019-02-02T12:09:36.681Z,8.97
2019-02-02T12:12:24.100Z,9.10
2019-02-02T12:15:14.174Z,9.03
2019-02-02T12:18:02.211Z,9.13
2019-02-02T12:20:50.754Z,9.03
2019-02-02T12:23:38.900Z,8.30
2019-02-02T12:26:30.416Z,7.93
2019-02-02T12:29:18.769Z,8.50
2019-02-02T12:32:27.600Z,8.10
2019-02-02T12:35:16.304Z,7.77
2019-02-02T12:38:04.085Z,7.77
2019-02-02T12:41:13.471Z,8.00
2019-02-02T12:44:01.558Z,7.63
2019-02-02T12:46:49.262Z,7.37
2019-02-02T12:49:37.177Z,7.57
2019-02-02T12:52:25.524Z,7.30
2019-02-02T12:55:13.795Z,8.17
2019-02-02T12:58:01.691Z,8.30
2019-02-02T13:00:49.784Z,7.80
2019-02-02T13:03:37.171Z,7.63
2019-02-02T13:06:25.516Z,8.03
2019-02-02T13:09:13.848Z,7.37
2019-02-02T13:12:01.576Z,7.20
2019-02-02T13:14:49.787Z,7.27
2019-02-02T13:17:59.841Z,7.67
2019-02-02T13:21:47.221Z,6.97
2019-02-02T13:25:07.228Z,7.50
2019-02-02T13:31:24.181Z,8.10
2019-02-02T13:34:12.258Z,7.67
2019-02-02T13:37:00.405Z,8.37
2019-02-02T13:39:48.377Z,8.80
2019-02-02T13:42:36.824Z,8.73
2019-02-02T13:45:24.474Z,7.90
2019-02-02T13:48:13.056Z,7.83
2019-02-02T13:51:00.840Z,7.30
2019-02-02T13:53:48.950Z,8.20
2019-02-02T13:56:37.324Z,7.90
2019-02-02T13:59:25.257Z,7.70
2019-02-02T14:02:20.819Z,7.03
2019-02-02T14:05:09.871Z,7.47
2019-02-02T14:08:00.095Z,7.93
2019-02-02T14:10:47.369Z,7.50
2019-02-02T14:13:35.702Z,7.10
2019-02-02T14:19:17.964Z,6.77
2019-02-02T14:22:05.993Z,8.07
2019-02-02T14:24:59.809Z,8.07
2019-02-02T14:27:42.637Z,7.17
2019-02-02T14:30:30.750Z,7.20
2019-02-02T14:33:19.559Z,7.33
2019-02-02T14:36:07.191Z,6.70
2019-02-02T14:38:54.817Z,7.43
2019-02-02T14:41:42.601Z,6.73
2019-02-02T14:44:29.933Z,6.70
2019-02-02T14:47:17.344Z,7.20
2019-02-02T14:50:06.669Z,6.30
2019-02-02T14:53:16.562Z,6.47
2019-02-02T14:56:03.287Z,6.73
2019-02-02T14:58:51.416Z,6.43
2019-02-02T15:01:39.159Z,6.93
2019-02-02T15:04:28.452Z,6.27
2019-02-02T15:07:16.196Z,6.50
2019-02-02T15:10:03.606Z,7.50
2019-02-02T15:12:52.920Z,6.30
2019-02-02T15:15:40.763Z,6.20
2019-02-02T15:18:29.174Z,6.87
2019-02-02T15:21:16.621Z,6.00
2019-02-02T15:24:07.576Z,5.80
2019-02-02T15:26:58.738Z,5.73
2019-02-02T15:29:46.988Z,5.20
2019-02-02T15:32:34.535Z,5.67
2019-02-02T15:35:22.387Z,5.13
2019-02-02T15:38:10.313Z,5.43
2019-02-02T15:40:59.391Z,5.40
2019-02-02T15:43:47.480Z,5.17
2019-02-02T15:46:34.856Z,5.33
2019-02-02T15:49:22.370Z,5.67
2019-02-02T15:52:10.249Z,5.70
2019-02-02T15:54:57.774Z,5.77
2019-02-02T15:57:45.424Z,5.47
2019-02-02T16:00:34.087Z,5.37
2019-02-02T16:03:21.479Z,5.77
2019-02-02T16:06:08.703Z,5.33
2019-02-02T16:08:56.556Z,5.30
2019-02-02T16:11:43.729Z,5.63
2019-02-02T16:14:31.580Z,5.00
2019-02-02T16:17:20.514Z,6.07
2019-02-02T16:20:08.984Z,5.77
2019-02-02T16:22:56.731Z,5.70
2019-02-02T16:25:48.353Z,5.17
2019-02-02T16:28:49.414Z,5.40
2019-02-02T16:31:37.552Z,5.60
2019-02-02T16:34:25.277Z,4.87
2019-02-02T16:37:12.980Z,4.87
2019-02-02T16:40:02.774Z,5.53
2019-02-02T16:42:53.522Z,5.20
2019-02-02T16:45:41.269Z,5.10
2019-02-02T16:48:29.016Z,5.73
2019-02-02T16:51:17.889Z,5.70
2019-02-02T16:54:25.430Z,5.50
2019-02-02T16:57:12.743Z,4.70
2019-02-02T17:00:02.407Z,4.47
2019-02-02T17:03:07.648Z,4.50
2019-02-02T17:06:21.188Z,4.80
2019-02-02T17:09:13.973Z,4.33
2019-02-02T17:12:03.361Z,4.47
2019-02-02T17:14:52.177Z,4.50
2019-02-02T17:17:39.733Z,4.13
2019-02-02T17:20:37.639Z,3.63
2019-02-02T17:23:25.387Z,3.90
2019-02-02T17:26:14.805Z,4.03
2019-02-02T17:29:01.988Z,3.90
2019-02-02T17:31:53.363Z,4.53
2019-02-02T17:34:42.407Z,3.70
2019-02-02T17:37:36.624Z,3.30
2019-02-02T17:40:26.176Z,3.60
2019-02-02T17:43:14.149Z,4.17
2019-02-02T17:46:02.402Z,3.70
2019-02-02T17:48:50.040Z,4.30
2019-02-02T17:51:38.062Z,4.00
2019-02-02T17:54:25.397Z,3.23
2019-02-02T17:57:13.256Z,3.30
2019-02-02T18:00:01.693Z,3.07
2019-02-02T18:02:52.598Z,3.40
2019-02-02T18:05:40.578Z,3.00
2019-02-02T18:08:28.864Z,3.20
2019-02-02T18:11:19.356Z,3.20
2019-02-02T18:14:07.313Z,3.47
2019-02-02T18:16:56.487Z,2.90
2019-02-02T18:19:47.757Z,3.00
2019-02-02T18:22:58.059Z,3.07
2019-02-02T18:25:46.214Z,2.77
2019-02-02T18:28:34.243Z,2.80
2019-02-02T18:31:22.174Z,2.57
2019-02-02T18:34:14.265Z,2.47
2019-02-02T18:36:58.953Z,2.60
2019-02-02T18:39:46.848Z,3.23
2019-02-02T18:42:34.183Z,2.73
2019-02-02T18:45:23.044Z,2.80
2019-02-02T18:48:12.303Z,2.50
2019-02-02T18:51:07.709Z,2.40
2019-02-02T18:53:55.427Z,2.80
2019-02-02T18:56:54.029Z,2.47
2019-02-02T18:59:42.301Z,2.80
2019-02-02T19:02:30.192Z,2.80
2019-02-02T19:05:18.636Z,2.57
2019-02-02T19:11:39.060Z,2.10
2019-02-02T19:14:37.211Z,1.90
2019-02-02T19:17:24.983Z,1.83
2019-02-02T19:20:14.554Z,1.80
2019-02-02T19:23:02.153Z,1.80
2019-02-02T19:25:50.494Z,1.50
2019-02-02T19:28:40.223Z,1.60
2019-02-02T19:31:28.752Z,1.70
2019-02-02T19:34:19.456Z,1.53
2019-02-02T19:37:22.172Z,1.60
2019-02-02T19:40:10.006Z,1.30
2019-02-02T19:42:57.486Z,1.47
2019-02-02T19:45:45.651Z,1.30
2019-02-02T19:48:33.016Z,1.70
2019-02-02T19:51:20.865Z,1.20
2019-02-02T19:54:08.977Z,1.30
2019-02-02T19:56:58.594Z,1.30
2019-02-02T19:59:53.349Z,1.60
2019-02-02T20:03:00.165Z,1.70
2019-02-02T20:05:55.450Z,1.57
2019-02-02T20:08:42.675Z,1.67
2019-02-02T20:11:29.965Z,1.60
2019-02-02T20:14:18.063Z,1.70
2019-02-02T20:17:05.668Z,1.60
2019-02-02T20:19:52.946Z,1.40
2019-02-02T20:22:40.494Z,1.67
2019-02-02T20:25:28.420Z,1.60
2019-02-02T20:28:16.009Z,1.50
2019-02-02T20:31:03.632Z,1.63
2019-02-02T20:33:50.944Z,1.63
2019-02-02T20:36:38.676Z,1.80
2019-02-02T20:39:26.294Z,1.97
2019-02-02T20:42:13.978Z,1.50
2019-02-02T20:45:01.775Z,1.50
2019-02-02T20:47:49.532Z,1.50
2019-02-02T20:50:37.008Z,1.87
2019-02-02T20:53:24.266Z,2.20
2019-02-02T20:56:11.657Z,1.83
2019-02-02T20:58:59.202Z,1.90
2019-02-02T21:01:46.909Z,1.90
2019-02-02T21:04:34.841Z,2.30
2019-02-02T21:07:22.766Z,2.73
2019-02-02T21:10:12.180Z,2.20
2019-02-02T21:12:59.918Z,2.50
2019-02-02T21:16:08.293Z,2.30
2019-02-02T21:19:17.508Z,2.00
2019-02-02T21:22:05.334Z,2.10
2019-02-02T21:24:53.267Z,2.20
2019-02-02T21:27:42.962Z,2.60
2019-02-02T21:30:34.411Z,2.23
2019-02-02T21:33:22.451Z,2.93
2019-02-02T21:36:10.570Z,2.30
2019-02-02T21:39:00.789Z,2.33
2019-02-02T21:41:48.702Z,2.73
2019-02-02T21:44:43.211Z,2.60
2019-02-02T21:47:26.390Z,2.90
2019-02-02T21:50:15.309Z,2.63
2019-02-02T21:53:04.143Z,3.37
2019-02-02T21:55:51.848Z,2.43
2019-02-02T21:58:39.397Z,2.77
2019-02-02T22:01:26.754Z,2.83
2019-02-02T22:04:16.134Z,2.63
2019-02-02T22:07:03.863Z,2.87
2019-02-02T22:09:52.812Z,3.47
2019-02-02T22:12:49.114Z,3.10
2019-02-02T22:15:40.231Z,2.70
2019-02-02T22:18:27.656Z,2.70
2019-02-02T22:21:15.681Z,2.73
2019-02-02T22:24:03.512Z,2.70
2019-02-02T22:26:51.362Z,2.70
2019-02-02T22:29:39.283Z,2.77
2019-02-02T22:32:29.006Z,2.90
2019-02-02T22:35:17.548Z,2.77
2019-02-02T22:38:04.996Z,2.67
2019-02-02T22:40:52.405Z,2.60
2019-02-02T22:43:40.092Z,2.70
2019-02-02T22:46:28.178Z,4.00
2019-02-02T22:49:16.783Z,2.80
2019-02-02T22:52:06.677Z,3.93
2019-02-02T22:54:54.296Z,2.60
2019-02-02T22:57:44.582Z,2.50
2019-02-02T23:01:14.589Z,3.37
2019-02-02T23:04:14.610Z,2.43
2019-02-02T23:07:23.172Z,2.97
2019-02-02T23:10:28.879Z,3.13
2019-02-02T23:13:35.465Z,2.70
2019-02-02T23:16:30.342Z,2.77
2019-02-02T23:19:17.699Z,2.80
2019-02-02T23:22:05.463Z,2.90
2019-02-02T23:24:53.960Z,2.53
2019-02-02T23:27:41.296Z,2.40
2019-02-02T23:30:29.950Z,2.20
2019-02-02T23:33:17.304Z,2.40
2019-02-02T23:36:05.260Z,2.50
2019-02-02T23:38:52.900Z,2.07
2019-02-02T23:41:40.915Z,2.30
2019-02-02T23:44:28.860Z,2.63
2019-02-02T23:47:16.609Z,2.37
2019-02-02T23:50:05.170Z,2.00
2019-02-02T23:52:53.947Z,2.37
2019-02-02T23:55:41.542Z,1.90
2019-02-02T23:58:28.940Z,2.03
